createdAt,value
2023-05-09T00:01:30.153Z,26.31
2023-05-09T00:03:57.854Z,26.25
2023-05-09T00:06:25.980Z,26.31
2023-05-09T00:08:53.072Z,26.28
2023-05-09T00:11:20.469Z,26.32
2023-05-09T00:13:49.156Z,26.31
2023-05-09T00:16:16.663Z,26.29
2023-05-09T00:18:44.317Z,26.30
2023-05-09T00:21:11.441Z,26.28
2023-05-09T00:23:38.564Z,26.25
2023-05-09T00:26:06.612Z,26.20
2023-05-09T00:28:33.705Z,26.13
2023-05-09T00:31:03.216Z,26.12
2023-05-09T00:33:30.303Z,26.13
2023-05-09T00:35:57.362Z,26.18
2023-05-09T00:38:24.450Z,26.10
2023-05-09T00:40:51.727Z,26.12
2023-05-09T00:43:18.803Z,26.22
2023-05-09T00:45:46.161Z,26.26
2023-05-09T00:48:15.195Z,26.26
2023-05-09T00:50:42.890Z,26.26
2023-05-09T00:53:10.156Z,26.25
2023-05-09T00:55:37.444Z,26.26
2023-05-09T00:58:04.537Z,26.24
2023-05-09T01:00:31.623Z,26.24
2023-05-09T01:03:18.662Z,26.22
2023-05-09T01:05:55.731Z,26.18
2023-05-09T01:08:37.482Z,26.18
2023-05-09T01:11:11.087Z,26.09
2023-05-09T01:13:46.881Z,26.04
2023-05-09T01:16:20.892Z,25.98
2023-05-09T01:19:00.353Z,26.07
2023-05-09T01:21:29.428Z,26.04
2023-05-09T01:24:22.974Z,26.06
2023-05-09T01:27:15.678Z,26.11
2023-05-09T01:29:46.995Z,26.13
2023-05-09T01:32:17.759Z,26.11
2023-05-09T01:34:46.246Z,26.16
2023-05-09T01:37:15.457Z,26.11
2023-05-09T01:39:47.563Z,26.16
2023-05-09T01:42:17.056Z,26.13
2023-05-09T01:44:47.043Z,26.15
2023-05-09T01:47:15.891Z,26.12
2023-05-09T01:49:44.433Z,26.11
2023-05-09T01:52:14.886Z,26.15
2023-05-09T01:54:44.455Z,26.09
2023-05-09T01:57:12.750Z,26.03
2023-05-09T01:59:41.502Z,25.98
2023-05-09T02:02:10.546Z,25.97
2023-05-09T02:04:39.032Z,25.99
2023-05-09T02:07:07.677Z,25.98
2023-05-09T02:09:35.058Z,26.02
2023-05-09T02:12:02.234Z,26.02
2023-05-09T02:14:29.740Z,26.04
2023-05-09T02:16:57.001Z,26.10
2023-05-09T02:19:25.480Z,26.06
2023-05-09T02:21:52.601Z,26.05
2023-05-09T02:24:19.903Z,26.06
2023-05-09T02:26:47.196Z,26.04
2023-05-09T02:29:20.138Z,26.09
2023-05-09T02:31:48.838Z,26.07
2023-05-09T02:34:16.931Z,26.08
2023-05-09T02:36:45.872Z,26.07
2023-05-09T02:39:13.366Z,26.00
2023-05-09T02:41:40.437Z,25.96
2023-05-09T02:44:07.537Z,25.95
2023-05-09T02:46:34.850Z,25.94
2023-05-09T02:49:01.990Z,25.93
2023-05-09T02:51:29.091Z,25.96
2023-05-09T02:53:57.505Z,25.96
2023-05-09T02:56:24.599Z,25.96
2023-05-09T02:58:51.703Z,26.04
2023-05-09T03:01:18.813Z,26.00
2023-05-09T03:03:46.126Z,26.03
2023-05-09T03:06:13.416Z,26.00
2023-05-09T03:08:40.490Z,26.04
2023-05-09T03:11:08.952Z,26.04
2023-05-09T03:13:36.051Z,26.03
2023-05-09T03:16:03.241Z,26.02
2023-05-09T03:18:30.365Z,26.03
2023-05-09T03:20:57.694Z,26.01
2023-05-09T03:23:24.812Z,26.02
2023-05-09T03:25:52.057Z,25.95
2023-05-09T03:28:20.476Z,25.88
2023-05-09T03:30:47.554Z,25.87
2023-05-09T03:33:14.644Z,25.92
2023-05-09T03:35:41.757Z,25.90
2023-05-09T03:38:08.875Z,25.90
2023-05-09T03:40:36.219Z,25.92
2023-05-09T03:43:03.454Z,25.97
2023-05-09T03:45:31.969Z,25.99
2023-05-09T03:47:59.189Z,25.97
2023-05-09T03:50:26.331Z,26.03
2023-05-09T03:52:53.398Z,26.00
2023-05-09T03:55:20.553Z,26.01
2023-05-09T03:57:47.646Z,25.96
2023-05-09T04:00:15.378Z,25.98
2023-05-09T04:02:44.001Z,26.00
2023-05-09T04:05:11.408Z,25.99
2023-05-09T04:07:38.635Z,26.00
2023-05-09T04:10:07.047Z,25.99
2023-05-09T04:12:34.186Z,26.01
2023-05-09T04:15:01.275Z,26.00
2023-05-09T04:17:29.899Z,25.92
2023-05-09T04:19:58.428Z,25.90
2023-05-09T04:22:25.505Z,25.87
2023-05-09T04:24:52.718Z,25.94
2023-05-09T04:27:19.864Z,25.98
2023-05-09T04:29:46.990Z,25.98
2023-05-09T04:32:14.087Z,26.03
2023-05-09T04:34:41.233Z,26.01
2023-05-09T04:37:09.689Z,26.03
2023-05-09T04:39:36.768Z,26.02
2023-05-09T04:42:04.227Z,26.02
2023-05-09T04:44:31.428Z,26.03
2023-05-09T04:46:58.673Z,26.00
2023-05-09T04:49:25.766Z,26.01
2023-05-09T04:51:52.834Z,26.01
2023-05-09T04:54:21.238Z,26.01
2023-05-09T04:56:50.157Z,25.97
2023-05-09T04:59:17.796Z,25.90
2023-05-09T05:01:44.915Z,25.90
2023-05-09T05:04:12.079Z,25.95
2023-05-09T05:06:39.252Z,25.93
2023-05-09T05:09:06.344Z,25.92
2023-05-09T05:11:34.811Z,25.95
2023-05-09T05:14:01.950Z,25.98
2023-05-09T05:16:29.112Z,26.02
2023-05-09T05:18:56.251Z,26.05
2023-05-09T05:21:23.338Z,26.01
2023-05-09T05:23:50.413Z,26.00
2023-05-09T05:26:17.524Z,26.03
2023-05-09T05:28:46.161Z,25.99
2023-05-09T05:31:13.370Z,25.98
2023-05-09T05:33:40.480Z,25.98
2023-05-09T05:36:08.009Z,26.01
2023-05-09T05:38:35.118Z,26.00
2023-05-09T05:41:02.209Z,26.00
2023-05-09T05:43:29.425Z,25.95
2023-05-09T05:45:57.873Z,25.87
2023-05-09T05:48:25.035Z,25.88
2023-05-09T05:50:52.098Z,25.90
2023-05-09T05:53:19.214Z,25.89
2023-05-09T05:55:46.317Z,25.90
2023-05-09T05:58:13.381Z,25.92
2023-05-09T06:00:40.582Z,25.94
2023-05-09T06:03:09.081Z,25.96
2023-05-09T06:05:36.223Z,25.98
2023-05-09T06:08:03.908Z,26.04
2023-05-09T06:10:31.028Z,25.95
2023-05-09T06:12:58.243Z,25.97
2023-05-09T06:15:25.421Z,25.99
2023-05-09T06:17:52.620Z,25.95
2023-05-09T06:20:21.086Z,25.99
2023-05-09T06:22:48.172Z,25.98
2023-05-09T06:25:15.568Z,25.97
2023-05-09T06:27:42.898Z,25.97
2023-05-09T06:30:24.867Z,25.95
2023-05-09T06:32:53.327Z,25.88
2023-05-09T06:35:21.978Z,25.88
2023-05-09T06:37:49.338Z,25.86
2023-05-09T06:40:17.182Z,25.91
2023-05-09T06:42:44.606Z,25.91
2023-05-09T06:45:11.891Z,25.93
2023-05-09T06:47:39.095Z,25.96
2023-05-09T06:50:07.693Z,25.99
2023-05-09T06:52:36.223Z,26.02
2023-05-09T06:55:03.452Z,26.01
2023-05-09T06:57:30.712Z,25.99
2023-05-09T06:59:57.819Z,25.99
2023-05-09T07:02:24.936Z,25.96
2023-05-09T07:04:52.092Z,25.95
2023-05-09T07:07:19.227Z,25.97
2023-05-09T07:09:50.692Z,25.94
2023-05-09T07:12:19.948Z,25.98
2023-05-09T07:14:47.020Z,25.93
2023-05-09T07:17:22.734Z,25.91
2023-05-09T07:19:50.311Z,25.84
2023-05-09T07:22:17.564Z,25.83
2023-05-09T07:24:44.748Z,25.86
2023-05-09T07:27:13.333Z,25.91
2023-05-09T07:29:40.452Z,25.92
2023-05-09T07:32:07.817Z,25.92
2023-05-09T07:34:35.828Z,25.98
2023-05-09T07:37:02.976Z,25.98
2023-05-09T07:39:30.044Z,25.99
2023-05-09T07:41:57.106Z,26.01
2023-05-09T07:44:25.676Z,26.03
2023-05-09T07:46:52.796Z,26.00
2023-05-09T07:49:19.860Z,26.01
2023-05-09T07:51:46.967Z,25.99
2023-05-09T07:54:14.020Z,26.01
2023-05-09T07:56:41.126Z,26.01
2023-05-09T07:59:08.361Z,26.00
2023-05-09T08:01:36.775Z,26.00
2023-05-09T08:04:04.088Z,25.96
2023-05-09T08:06:31.325Z,25.96
2023-05-09T08:08:58.589Z,25.88
2023-05-09T08:11:25.708Z,25.92
2023-05-09T08:13:52.798Z,25.93
2023-05-09T08:16:19.976Z,25.95
2023-05-09T08:18:48.417Z,25.98
2023-05-09T08:21:15.565Z,25.99
2023-05-09T08:23:42.671Z,26.04
2023-05-09T08:26:09.764Z,26.04
2023-05-09T08:28:36.914Z,26.07
2023-05-09T08:31:04.106Z,26.03
2023-05-09T08:33:31.207Z,26.02
2023-05-09T08:35:59.646Z,26.01
2023-05-09T08:38:26.745Z,25.99
2023-05-09T08:40:59.514Z,26.03
2023-05-09T08:43:28.498Z,26.02
2023-05-09T08:45:59.150Z,25.98
2023-05-09T08:48:28.093Z,25.97
2023-05-09T08:50:55.959Z,25.98
2023-05-09T08:53:24.656Z,25.90
2023-05-09T08:55:52.402Z,25.88
2023-05-09T08:58:19.971Z,25.90
2023-05-09T09:00:47.646Z,25.88
2023-05-09T09:03:15.339Z,25.93
2023-05-09T09:05:44.430Z,25.95
2023-05-09T09:08:11.662Z,25.97
2023-05-09T09:10:41.933Z,26.00
2023-05-09T09:13:12.465Z,26.00
2023-05-09T09:15:43.102Z,25.96
2023-05-09T09:18:12.708Z,26.01
2023-05-09T09:20:45.019Z,26.04
2023-05-09T09:23:17.528Z,26.01
2023-05-09T09:25:47.093Z,25.99
2023-05-09T09:28:14.356Z,25.94
2023-05-09T09:30:44.031Z,25.96
2023-05-09T09:33:19.235Z,25.96
2023-05-09T09:35:48.192Z,25.93
2023-05-09T09:38:16.497Z,25.97
2023-05-09T09:40:53.189Z,25.98
2023-05-09T09:43:20.390Z,25.98
2023-05-09T09:45:49.273Z,25.99
2023-05-09T09:48:16.505Z,25.94
2023-05-09T09:50:43.577Z,25.92
2023-05-09T09:53:10.646Z,25.96
2023-05-09T09:55:48.670Z,25.98
2023-05-09T09:58:20.598Z,26.02
2023-05-09T10:00:48.513Z,26.08
2023-05-09T10:03:16.450Z,26.08
2023-05-09T10:05:43.686Z,26.02
2023-05-09T10:08:10.802Z,26.03
2023-05-09T10:10:38.102Z,26.09
2023-05-09T10:13:07.878Z,26.18
2023-05-09T10:15:49.371Z,26.15
2023-05-09T10:20:53.489Z,26.17
2023-05-09T10:23:21.227Z,26.12
2023-05-09T10:25:54.447Z,26.20
2023-05-09T10:28:26.381Z,26.09
2023-05-09T10:30:59.619Z,26.07
2023-05-09T10:33:34.515Z,26.08
2023-05-09T10:36:03.481Z,26.09
2023-05-09T10:38:31.237Z,26.07
2023-05-09T10:40:59.258Z,26.10
2023-05-09T10:43:26.814Z,26.10
2023-05-09T10:45:55.626Z,26.19
2023-05-09T10:48:23.310Z,26.20
2023-05-09T10:50:50.835Z,26.18
2023-05-09T10:53:17.947Z,26.22
2023-05-09T10:55:49.602Z,26.30
2023-05-09T10:58:21.637Z,26.28
2023-05-09T11:00:49.771Z,26.28
2023-05-09T11:03:18.315Z,26.28
2023-05-09T11:05:46.342Z,26.27
2023-05-09T11:08:23.983Z,26.37
2023-05-09T11:10:51.436Z,26.32
2023-05-09T11:13:19.579Z,26.36
2023-05-09T11:16:19.839Z,26.13
2023-05-09T11:18:52.757Z,26.22
2023-05-09T11:21:20.912Z,26.21
2023-05-09T11:23:49.187Z,26.24
2023-05-09T11:26:16.340Z,26.20
2023-05-09T11:28:52.103Z,26.22
2023-05-09T11:31:19.651Z,26.20
2023-05-09T11:33:49.964Z,26.29
2023-05-09T11:36:20.313Z,26.33
2023-05-09T11:38:47.923Z,26.27
2023-05-09T11:41:15.577Z,26.27
2023-05-09T11:43:43.332Z,26.36
2023-05-09T11:46:10.475Z,26.39
2023-05-09T11:48:38.471Z,26.40
2023-05-09T11:51:05.654Z,26.41
2023-05-09T11:53:34.213Z,26.50
2023-05-09T11:56:03.752Z,26.53
2023-05-09T11:58:31.170Z,26.57
2023-05-09T12:00:58.571Z,26.61
2023-05-09T12:03:26.028Z,26.50
2023-05-09T12:05:54.510Z,26.43
2023-05-09T12:08:22.131Z,26.40
2023-05-09T12:10:51.241Z,26.40
2023-05-09T12:13:18.507Z,26.47
2023-05-09T12:15:45.639Z,26.40
2023-05-09T12:18:12.778Z,26.43
2023-05-09T12:20:41.361Z,26.52
2023-05-09T12:23:09.714Z,26.58
2023-05-09T12:25:36.859Z,26.59
2023-05-09T12:28:05.645Z,26.64
2023-05-09T12:30:32.928Z,26.63
2023-05-09T12:33:00.263Z,26.63
2023-05-09T12:35:27.433Z,26.56
2023-05-09T12:37:55.539Z,26.70
2023-05-09T12:40:22.909Z,26.72
2023-05-09T12:42:50.401Z,26.77
2023-05-09T12:45:19.748Z,26.76
2023-05-09T12:47:51.804Z,26.75
2023-05-09T12:50:19.197Z,26.77
2023-05-09T12:53:02.075Z,26.75
2023-05-09T12:55:31.219Z,26.75
2023-05-09T12:57:59.947Z,26.75
2023-05-09T13:00:28.778Z,26.79
2023-05-09T13:02:56.041Z,26.81
2023-05-09T13:05:23.630Z,26.87
2023-05-09T13:07:52.091Z,26.94
2023-05-09T13:10:23.144Z,26.99
2023-05-09T13:12:51.028Z,27.08
2023-05-09T13:15:20.197Z,27.11
2023-05-09T13:17:49.900Z,27.12
2023-05-09T13:20:17.157Z,27.10
2023-05-09T13:22:45.533Z,27.10
2023-05-09T13:25:12.995Z,27.11
2023-05-09T13:27:40.198Z,27.10
2023-05-09T13:30:08.132Z,27.14
2023-05-09T13:32:35.518Z,27.14
2023-05-09T13:35:04.563Z,27.08
2023-05-09T13:37:31.685Z,27.15
2023-05-09T13:39:58.956Z,27.15
2023-05-09T13:42:27.690Z,27.14
2023-05-09T13:44:54.800Z,27.15
2023-05-09T13:47:22.130Z,27.16
2023-05-09T13:49:49.246Z,27.19
2023-05-09T13:52:17.710Z,27.21
2023-05-09T13:54:44.864Z,27.23
2023-05-09T13:57:12.032Z,27.38
2023-05-09T13:59:39.241Z,27.42
2023-05-09T14:02:07.259Z,27.46
2023-05-09T14:04:34.396Z,27.48
2023-05-09T14:07:01.488Z,27.50
2023-05-09T14:09:30.056Z,27.51
2023-05-09T14:11:57.296Z,27.54
2023-05-09T14:14:25.452Z,27.43
2023-05-09T14:16:52.653Z,27.43
2023-05-09T14:19:19.739Z,27.59
2023-05-09T14:21:46.852Z,27.63
2023-05-09T14:24:16.140Z,27.60
2023-05-09T14:26:45.030Z,27.52
2023-05-09T14:29:12.363Z,26.70
2023-05-09T14:31:39.477Z,26.63
2023-05-09T14:34:06.624Z,26.60
2023-05-09T14:36:33.765Z,26.30
2023-05-09T14:39:00.865Z,26.30
2023-05-09T14:41:28.084Z,25.77
2023-05-09T14:43:56.512Z,25.80
2023-05-09T14:46:23.668Z,25.72
2023-05-09T14:48:50.805Z,25.42
2023-05-09T14:51:17.919Z,25.49
2023-05-09T14:53:45.073Z,25.60
2023-05-09T14:56:12.178Z,25.39
2023-05-09T14:58:39.334Z,25.60
2023-05-09T15:01:07.918Z,26.00
2023-05-09T15:03:35.036Z,25.92
2023-05-09T15:06:02.125Z,26.00
2023-05-09T15:08:29.386Z,25.79
2023-05-09T15:10:56.472Z,26.03
2023-05-09T15:13:23.707Z,26.11
2023-05-09T15:15:50.830Z,26.20
2023-05-09T15:18:19.255Z,25.88
2023-05-09T15:20:46.337Z,25.74
2023-05-09T15:23:13.583Z,25.95
2023-05-09T15:25:42.326Z,26.00
2023-05-09T15:28:09.426Z,25.43
2023-05-09T15:30:38.344Z,25.70
2023-05-09T15:33:05.640Z,25.86
2023-05-09T15:35:34.262Z,25.79
2023-05-09T15:38:01.402Z,25.78
2023-05-09T15:40:28.623Z,25.41
2023-05-09T15:42:55.728Z,25.11
2023-05-09T15:45:22.834Z,24.60
2023-05-09T15:47:49.902Z,24.12
2023-05-09T15:50:17.440Z,23.94
2023-05-09T15:52:46.087Z,24.94
2023-05-09T15:55:13.514Z,24.92
2023-05-09T15:57:40.712Z,25.00
2023-05-09T16:00:09.394Z,25.29
2023-05-09T16:02:36.659Z,25.57
2023-05-09T16:05:04.220Z,25.81
2023-05-09T16:07:33.266Z,26.01
2023-05-09T16:10:02.641Z,25.38
2023-05-09T16:12:29.901Z,25.62
2023-05-09T16:14:57.028Z,25.22
2023-05-09T16:17:24.176Z,24.98
2023-05-09T16:19:51.259Z,24.67
2023-05-09T16:22:18.400Z,25.10
2023-05-09T16:24:45.504Z,25.32
2023-05-09T16:27:13.930Z,25.11
2023-05-09T16:29:41.045Z,24.96
2023-05-09T16:32:08.829Z,24.76
2023-05-09T16:34:36.474Z,24.80
2023-05-09T16:37:03.715Z,25.06
2023-05-09T16:39:30.836Z,25.09
2023-05-09T16:41:58.110Z,24.73
2023-05-09T16:44:26.919Z,24.60
2023-05-09T16:46:53.996Z,24.32
2023-05-09T16:49:21.089Z,24.40
2023-05-09T16:51:48.202Z,24.34
2023-05-09T16:54:15.385Z,24.42
2023-05-09T16:56:42.464Z,24.49
2023-05-09T16:59:09.590Z,24.29
2023-05-09T17:01:38.115Z,24.26
2023-05-09T17:04:05.446Z,23.97
2023-05-09T17:06:32.683Z,24.08
2023-05-09T17:08:59.944Z,23.97
2023-05-09T17:11:27.040Z,24.10
2023-05-09T17:13:54.163Z,24.17
2023-05-09T17:16:21.454Z,24.12
2023-05-09T17:18:49.879Z,24.33
2023-05-09T17:21:17.204Z,24.53
2023-05-09T17:23:44.281Z,24.73
2023-05-09T17:26:11.499Z,24.73
2023-05-09T17:28:38.632Z,24.79
2023-05-09T17:31:05.856Z,24.83
2023-05-09T17:33:32.998Z,24.88
2023-05-09T17:36:01.450Z,24.92
2023-05-09T17:38:28.642Z,24.93
2023-05-09T17:40:55.712Z,24.92
2023-05-09T17:43:22.918Z,25.01
2023-05-09T17:45:50.574Z,25.03
2023-05-09T17:48:17.709Z,25.01
2023-05-09T17:50:44.821Z,25.09
2023-05-09T17:53:13.232Z,25.07
2023-05-09T17:55:41.284Z,25.01
2023-05-09T17:58:08.852Z,25.00
2023-05-09T18:00:35.965Z,25.06
2023-05-09T18:03:03.308Z,25.04
2023-05-09T18:05:30.474Z,25.08
2023-05-09T18:07:57.600Z,25.08
2023-05-09T18:10:27.464Z,25.06
2023-05-09T18:12:54.652Z,25.06
2023-05-09T18:15:21.784Z,25.02
2023-05-09T18:17:48.907Z,25.22
2023-05-09T18:20:16.349Z,25.22
2023-05-09T18:22:43.512Z,25.15
2023-05-09T18:25:10.713Z,25.17
2023-05-09T18:27:39.183Z,25.10
2023-05-09T18:30:07.666Z,25.20
2023-05-09T18:32:34.801Z,25.25
2023-05-09T18:35:01.968Z,25.34
2023-05-09T18:37:29.216Z,25.29
2023-05-09T18:39:56.373Z,25.29
2023-05-09T18:42:23.711Z,25.23
2023-05-09T18:44:52.209Z,25.24
2023-05-09T18:47:19.327Z,25.27
2023-05-09T18:49:46.463Z,25.28
2023-05-09T18:52:13.890Z,25.27
2023-05-09T18:54:41.149Z,25.24
2023-05-09T18:57:08.448Z,25.21
2023-05-09T18:59:35.568Z,25.22
2023-05-09T19:02:03.996Z,25.21
2023-05-09T19:04:31.498Z,25.20
2023-05-09T19:06:58.750Z,25.24
2023-05-09T19:09:26.125Z,25.26
2023-05-09T19:11:53.245Z,25.35
2023-05-09T19:14:20.316Z,25.39
2023-05-09T19:16:47.455Z,25.39
2023-05-09T19:19:15.914Z,25.41
2023-05-09T19:21:43.041Z,25.43
2023-05-09T19:24:10.146Z,25.42
2023-05-09T19:26:37.276Z,25.38
2023-05-09T19:29:04.509Z,25.45
2023-05-09T19:31:31.649Z,25.47
2023-05-09T19:33:58.984Z,25.38
2023-05-09T19:36:27.586Z,25.44
2023-05-09T19:38:54.693Z,25.39
2023-05-09T19:41:21.800Z,25.40
2023-05-09T19:43:48.912Z,25.41
2023-05-09T19:46:16.390Z,25.38
2023-05-09T19:48:43.594Z,25.42
2023-05-09T19:51:10.703Z,25.49
2023-05-09T19:53:39.190Z,25.43
2023-05-09T19:56:06.557Z,25.44
2023-05-09T19:58:34.712Z,25.47
2023-05-09T20:01:01.789Z,25.45
2023-05-09T20:03:29.009Z,25.46
2023-05-09T20:05:56.134Z,25.44
2023-05-09T20:08:23.256Z,25.40
2023-05-09T20:10:52.657Z,25.38
2023-05-09T20:13:20.091Z,25.37
2023-05-09T20:15:47.470Z,25.35
2023-05-09T20:18:14.601Z,25.34
2023-05-09T20:20:42.285Z,25.38
2023-05-09T20:23:09.377Z,25.33
2023-05-09T20:25:36.509Z,25.24
2023-05-09T20:28:04.940Z,25.26
2023-05-09T20:30:32.028Z,25.18
2023-05-09T20:32:59.244Z,25.28
2023-05-09T20:35:26.382Z,25.27
2023-05-09T20:37:53.716Z,25.14
2023-05-09T20:40:20.985Z,25.32
2023-05-09T20:42:48.062Z,25.34
2023-05-09T20:45:16.476Z,25.38
2023-05-09T20:47:43.609Z,25.37
2023-05-09T20:50:11.130Z,25.35
2023-05-09T20:52:38.239Z,25.40
2023-05-09T20:55:06.035Z,25.34
2023-05-09T20:57:33.106Z,25.35
2023-05-09T21:00:00.354Z,25.32
2023-05-09T21:02:29.036Z,25.20
2023-05-09T21:04:56.231Z,25.33
2023-05-09T21:07:23.325Z,25.32
2023-05-09T21:09:50.433Z,25.26
2023-05-09T21:12:17.632Z,25.23
2023-05-09T21:14:44.840Z,25.25
2023-05-09T21:17:12.108Z,25.26
2023-05-09T21:19:40.627Z,25.31
2023-05-09T21:22:07.707Z,25.31
2023-05-09T21:24:34.914Z,25.28
2023-05-09T21:27:02.045Z,25.35
2023-05-09T21:29:29.257Z,25.39
2023-05-09T21:31:56.378Z,25.39
2023-05-09T21:34:23.448Z,25.41
2023-05-09T21:36:51.859Z,25.36
2023-05-09T21:39:18.978Z,25.42
2023-05-09T21:41:46.061Z,25.39
2023-05-09T21:44:13.156Z,25.37
2023-05-09T21:46:40.396Z,25.37
2023-05-09T21:49:07.491Z,25.34
2023-05-09T21:51:34.896Z,25.37
2023-05-09T21:54:03.498Z,25.34
2023-05-09T21:56:30.582Z,25.28
2023-05-09T21:58:57.689Z,25.26
2023-05-09T22:01:24.899Z,25.28
2023-05-09T22:03:52.128Z,25.29
2023-05-09T22:06:19.326Z,25.31
2023-05-09T22:08:46.438Z,25.34
2023-05-09T22:11:15.279Z,25.37
2023-05-09T22:13:42.536Z,25.27
2023-05-09T22:16:09.853Z,25.31
2023-05-09T22:18:36.998Z,25.42
2023-05-09T22:21:04.513Z,25.41
2023-05-09T22:23:31.591Z,25.38
2023-05-09T22:25:58.791Z,25.39
2023-05-09T22:28:27.218Z,25.42
2023-05-09T22:30:54.315Z,25.41
2023-05-09T22:33:21.449Z,25.39
2023-05-09T22:35:48.535Z,25.41
2023-05-09T22:38:15.654Z,25.39
2023-05-09T22:40:43.325Z,25.37
2023-05-09T22:43:10.445Z,25.28
2023-05-09T22:45:39.094Z,25.26
2023-05-09T22:48:06.834Z,25.31
2023-05-09T22:50:33.930Z,25.28
2023-05-09T22:53:01.710Z,25.29
2023-05-09T22:55:28.924Z,25.35
2023-05-09T22:57:56.033Z,25.37
2023-05-09T23:00:23.152Z,25.41
2023-05-09T23:02:51.712Z,25.41
2023-05-09T23:05:19.077Z,25.40
2023-05-09T23:07:46.261Z,25.40
2023-05-09T23:10:13.476Z,25.41
2023-05-09T23:12:40.665Z,25.41
2023-05-09T23:15:08.938Z,25.40
2023-05-09T23:17:36.114Z,25.43
2023-05-09T23:20:05.698Z,25.39
2023-05-09T23:22:32.842Z,25.41
2023-05-09T23:24:59.995Z,25.40
2023-05-09T23:27:27.232Z,25.38
2023-05-09T23:29:55.276Z,25.33
2023-05-09T23:32:22.431Z,25.30
2023-05-09T23:34:49.512Z,25.30
2023-05-09T23:37:18.021Z,25.33
2023-05-09T23:39:45.094Z,25.34
2023-05-09T23:42:12.489Z,25.34
2023-05-09T23:44:39.596Z,25.39
2023-05-09T23:47:06.712Z,25.47
2023-05-09T23:49:33.940Z,25.47
2023-05-09T23:52:01.119Z,25.42
2023-05-09T23:54:29.554Z,25.44
2023-05-09T23:56:56.649Z,25.44
2023-05-09T23:59:23.953Z,25.46
